sensor_id;sensor_type;location;lat;lon;timestamp;P1;durP1;ratioP1;P2;durP2;ratioP2
44358;SDS011;30077;52.474;13.326;2022-09-09T00:03:17;16.35;;;12.57;;
44358;SDS011;30077;52.474;13.326;2022-09-09T00:08:20;14.02;;;11.88;;
44358;SDS011;30077;52.474;13.326;2022-09-09T00:13:35;17.90;;;12.05;;
44358;SDS011;30077;52.474;13.326;2022-09-09T00:24:04;15.75;;;12.38;;
44358;SDS011;30077;52.474;13.326;2022-09-09T00:29:15;17.38;;;13.00;;
44358;SDS011;30077;52.474;13.326;2022-09-09T00:34:21;14.80;;;11.63;;
44358;SDS011;30077;52.474;13.326;2022-09-09T00:44:49;15.77;;;13.23;;
44358;SDS011;30077;52.474;13.326;2022-09-09T01:00:16;18.67;;;13.52;;
44358;SDS011;30077;52.474;13.326;2022-09-09T01:10:41;16.60;;;13.55;;
44358;SDS011;30077;52.474;13.326;2022-09-09T01:15:49;16.30;;;12.65;;
44358;SDS011;30077;52.474;13.326;2022-09-09T01:26:15;17.67;;;13.27;;
44358;SDS011;30077;52.474;13.326;2022-09-09T01:31:23;14.82;;;12.15;;
44358;SDS011;30077;52.474;13.326;2022-09-09T01:36:30;16.73;;;13.45;;
44358;SDS011;30077;52.474;13.326;2022-09-09T01:41:31;18.63;;;12.27;;
44358;SDS011;30077;52.474;13.326;2022-09-09T01:46:32;17.05;;;12.50;;
44358;SDS011;30077;52.474;13.326;2022-09-09T01:51:32;17.55;;;12.60;;
44358;SDS011;30077;52.474;13.326;2022-09-09T02:02:08;15.32;;;11.75;;
44358;SDS011;30077;52.474;13.326;2022-09-09T02:12:39;16.75;;;12.38;;
44358;SDS011;30077;52.474;13.326;2022-09-09T02:17:43;17.58;;;12.13;;
44358;SDS011;30077;52.474;13.326;2022-09-09T02:22:47;16.60;;;12.73;;
44358;SDS011;30077;52.474;13.326;2022-09-09T02:27:50;14.82;;;12.02;;
44358;SDS011;30077;52.474;13.326;2022-09-09T02:32:51;16.27;;;11.65;;
44358;SDS011;30077;52.474;13.326;2022-09-09T02:37:58;17.02;;;12.52;;
44358;SDS011;30077;52.474;13.326;2022-09-09T02:43:01;17.05;;;12.55;;
44358;SDS011;30077;52.474;13.326;2022-09-09T02:53:23;16.67;;;13.00;;
44358;SDS011;30077;52.474;13.326;2022-09-09T02:58:31;16.00;;;11.90;;
44358;SDS011;30077;52.474;13.326;2022-09-09T03:03:31;15.55;;;11.50;;
44358;SDS011;30077;52.474;13.326;2022-09-09T03:08:32;15.32;;;11.98;;
44358;SDS011;30077;52.474;13.326;2022-09-09T03:13:32;16.53;;;12.07;;
44358;SDS011;30077;52.474;13.326;2022-09-09T03:18:33;16.02;;;11.45;;
44358;SDS011;30077;52.474;13.326;2022-09-09T03:23:34;17.23;;;11.35;;
44358;SDS011;30077;52.474;13.326;2022-09-09T03:28:34;15.43;;;11.20;;
44358;SDS011;30077;52.474;13.326;2022-09-09T03:33:36;15.68;;;10.68;;
44358;SDS011;30077;52.474;13.326;2022-09-09T03:38:37;14.25;;;10.80;;
44358;SDS011;30077;52.474;13.326;2022-09-09T03:43:37;15.15;;;10.75;;
44358;SDS011;30077;52.474;13.326;2022-09-09T03:48:37;15.63;;;10.45;;
44358;SDS011;30077;52.474;13.326;2022-09-09T03:53:40;14.65;;;10.88;;
44358;SDS011;30077;52.474;13.326;2022-09-09T03:58:40;13.18;;;9.00;;
44358;SDS011;30077;52.474;13.326;2022-09-09T04:03:40;17.10;;;10.73;;
44358;SDS011;30077;52.474;13.326;2022-09-09T04:08:41;13.40;;;10.23;;
44358;SDS011;30077;52.474;13.326;2022-09-09T04:13:42;14.50;;;10.65;;
44358;SDS011;30077;52.474;13.326;2022-09-09T04:18:44;13.98;;;9.82;;
44358;SDS011;30077;52.474;13.326;2022-09-09T04:23:44;12.90;;;10.90;;
44358;SDS011;30077;52.474;13.326;2022-09-09T04:28:45;14.20;;;10.97;;
44358;SDS011;30077;52.474;13.326;2022-09-09T04:33:45;13.10;;;9.50;;
44358;SDS011;30077;52.474;13.326;2022-09-09T04:38:46;13.10;;;9.77;;
44358;SDS011;30077;52.474;13.326;2022-09-09T04:43:48;14.82;;;9.40;;
44358;SDS011;30077;52.474;13.326;2022-09-09T04:48:49;15.95;;;10.07;;
44358;SDS011;30077;52.474;13.326;2022-09-09T04:53:50;15.63;;;10.05;;
44358;SDS011;30077;52.474;13.326;2022-09-09T04:58:53;11.07;;;9.25;;
44358;SDS011;30077;52.474;13.326;2022-09-09T05:03:55;12.90;;;9.30;;
44358;SDS011;30077;52.474;13.326;2022-09-09T05:08:57;17.13;;;8.47;;
44358;SDS011;30077;52.474;13.326;2022-09-09T05:13:58;9.38;;;8.30;;
44358;SDS011;30077;52.474;13.326;2022-09-09T05:18:58;10.38;;;8.18;;
44358;SDS011;30077;52.474;13.326;2022-09-09T05:23:59;14.02;;;8.63;;
44358;SDS011;30077;52.474;13.326;2022-09-09T05:29:00;10.95;;;7.80;;
44358;SDS011;30077;52.474;13.326;2022-09-09T05:34:01;11.80;;;8.05;;
44358;SDS011;30077;52.474;13.326;2022-09-09T05:39:01;8.88;;;7.30;;
44358;SDS011;30077;52.474;13.326;2022-09-09T05:44:01;10.93;;;7.50;;
44358;SDS011;30077;52.474;13.326;2022-09-09T05:49:01;11.65;;;7.72;;
44358;SDS011;30077;52.474;13.326;2022-09-09T05:54:02;11.67;;;7.47;;
44358;SDS011;30077;52.474;13.326;2022-09-09T05:59:02;12.03;;;7.63;;
44358;SDS011;30077;52.474;13.326;2022-09-09T06:04:03;11.07;;;7.82;;
44358;SDS011;30077;52.474;13.326;2022-09-09T06:09:04;16.17;;;7.28;;
44358;SDS011;30077;52.474;13.326;2022-09-09T06:14:09;10.18;;;6.70;;
44358;SDS011;30077;52.474;13.326;2022-09-09T06:19:09;13.13;;;7.57;;
44358;SDS011;30077;52.474;13.326;2022-09-09T06:24:12;12.88;;;7.95;;
44358;SDS011;30077;52.474;13.326;2022-09-09T06:29:13;8.65;;;5.72;;
44358;SDS011;30077;52.474;13.326;2022-09-09T06:34:14;10.95;;;6.20;;
44358;SDS011;30077;52.474;13.326;2022-09-09T06:39:15;10.43;;;6.77;;
44358;SDS011;30077;52.474;13.326;2022-09-09T06:44:16;20.75;;;8.43;;
44358;SDS011;30077;52.474;13.326;2022-09-09T06:49:16;23.95;;;12.88;;
44358;SDS011;30077;52.474;13.326;2022-09-09T06:54:16;11.02;;;6.50;;
44358;SDS011;30077;52.474;13.326;2022-09-09T06:59:18;17.47;;;6.73;;
44358;SDS011;30077;52.474;13.326;2022-09-09T07:04:18;8.48;;;5.45;;
44358;SDS011;30077;52.474;13.326;2022-09-09T07:14:23;8.60;;;4.47;;
44358;SDS011;30077;52.474;13.326;2022-09-09T07:19:24;6.22;;;3.60;;
44358;SDS011;30077;52.474;13.326;2022-09-09T07:24:24;114.07;;;8.85;;
44358;SDS011;30077;52.474;13.326;2022-09-09T07:29:24;5.43;;;3.40;;
44358;SDS011;30077;52.474;13.326;2022-09-09T07:34:24;7.97;;;3.58;;
44358;SDS011;30077;52.474;13.326;2022-09-09T07:39:25;4.18;;;2.70;;
44358;SDS011;30077;52.474;13.326;2022-09-09T07:44:25;4.18;;;2.60;;
44358;SDS011;30077;52.474;13.326;2022-09-09T07:49:26;6.80;;;3.33;;
44358;SDS011;30077;52.474;13.326;2022-09-09T07:54:27;4.40;;;2.40;;
44358;SDS011;30077;52.474;13.326;2022-09-09T07:59:27;7.78;;;2.72;;
44358;SDS011;30077;52.474;13.326;2022-09-09T08:04:29;9.77;;;3.92;;
44358;SDS011;30077;52.474;13.326;2022-09-09T08:09:30;4.80;;;2.95;;
44358;SDS011;30077;52.474;13.326;2022-09-09T08:14:32;9.80;;;5.87;;
44358;SDS011;30077;52.474;13.326;2022-09-09T08:19:32;4.60;;;2.47;;
44358;SDS011;30077;52.474;13.326;2022-09-09T08:24:35;6.90;;;2.38;;
44358;SDS011;30077;52.474;13.326;2022-09-09T08:29:36;6.63;;;2.72;;
44358;SDS011;30077;52.474;13.326;2022-09-09T08:34:37;3.85;;;2.30;;
44358;SDS011;30077;52.474;13.326;2022-09-09T08:39:38;5.73;;;2.43;;
44358;SDS011;30077;52.474;13.326;2022-09-09T08:55:24;6.10;;;2.03;;
44358;SDS011;30077;52.474;13.326;2022-09-09T09:00:31;4.07;;;2.30;;
44358;SDS011;30077;52.474;13.326;2022-09-09T09:05:44;7.78;;;4.60;;
44358;SDS011;30077;52.474;13.326;2022-09-09T09:10:54;10.68;;;6.32;;
44358;SDS011;30077;52.474;13.326;2022-09-09T09:16:01;8.40;;;2.88;;
44358;SDS011;30077;52.474;13.326;2022-09-09T09:21:28;6.55;;;2.42;;
44358;SDS011;30077;52.474;13.326;2022-09-09T09:26:43;6.97;;;2.58;;
44358;SDS011;30077;52.474;13.326;2022-09-09T09:32:02;3.97;;;1.87;;
44358;SDS011;30077;52.474;13.326;2022-09-09T09:37:11;4.13;;;2.05;;
44358;SDS011;30077;52.474;13.326;2022-09-09T09:42:19;5.18;;;2.40;;
44358;SDS011;30077;52.474;13.326;2022-09-09T09:47:20;3.80;;;1.90;;
44358;SDS011;30077;52.474;13.326;2022-09-09T09:52:25;6.35;;;1.80;;
44358;SDS011;30077;52.474;13.326;2022-09-09T09:57:28;10.32;;;2.42;;
44358;SDS011;30077;52.474;13.326;2022-09-09T10:02:36;4.93;;;1.70;;
44358;SDS011;30077;52.474;13.326;2022-09-09T10:07:40;4.82;;;2.33;;
44358;SDS011;30077;52.474;13.326;2022-09-09T10:12:49;6.75;;;2.42;;
44358;SDS011;30077;52.474;13.326;2022-09-09T10:18:15;4.53;;;1.70;;
44358;SDS011;30077;52.474;13.326;2022-09-09T10:34:39;6.82;;;3.10;;
44358;SDS011;30077;52.474;13.326;2022-09-09T10:39:56;5.53;;;2.87;;
44358;SDS011;30077;52.474;13.326;2022-09-09T10:45:19;4.15;;;2.25;;
44358;SDS011;30077;52.474;13.326;2022-09-09T10:55:57;3.95;;;1.58;;
44358;SDS011;30077;52.474;13.326;2022-09-09T11:01:03;2.58;;;1.50;;
44358;SDS011;30077;52.474;13.326;2022-09-09T11:06:18;6.97;;;2.53;;
44358;SDS011;30077;52.474;13.326;2022-09-09T11:11:29;4.50;;;2.00;;
44358;SDS011;30077;52.474;13.326;2022-09-09T11:22:00;5.00;;;2.60;;
44358;SDS011;30077;52.474;13.326;2022-09-09T11:27:10;4.68;;;1.60;;
44358;SDS011;30077;52.474;13.326;2022-09-09T11:42:47;1.95;;;1.30;;
44358;SDS011;30077;52.474;13.326;2022-09-09T11:47:53;4.85;;;1.55;;
44358;SDS011;30077;52.474;13.326;2022-09-09T11:53:05;7.40;;;1.60;;
44358;SDS011;30077;52.474;13.326;2022-09-09T12:08:45;5.85;;;1.40;;
44358;SDS011;30077;52.474;13.326;2022-09-09T12:13:52;1.48;;;1.27;;
44358;SDS011;30077;52.474;13.326;2022-09-09T12:19:02;3.13;;;1.20;;
44358;SDS011;30077;52.474;13.326;2022-09-09T12:24:10;3.33;;;1.40;;
44358;SDS011;30077;52.474;13.326;2022-09-09T12:34:27;4.47;;;1.30;;
44358;SDS011;30077;52.474;13.326;2022-09-09T12:39:45;2.00;;;0.98;;
44358;SDS011;30077;52.474;13.326;2022-09-09T12:49:54;4.47;;;1.20;;
44358;SDS011;30077;52.474;13.326;2022-09-09T12:54:57;5.60;;;2.38;;
44358;SDS011;30077;52.474;13.326;2022-09-09T13:00:16;6.72;;;1.80;;
44358;SDS011;30077;52.474;13.326;2022-09-09T13:05:23;4.20;;;1.55;;
44358;SDS011;30077;52.474;13.326;2022-09-09T13:10:24;3.33;;;1.40;;
44358;SDS011;30077;52.474;13.326;2022-09-09T13:15:28;4.28;;;1.50;;
44358;SDS011;30077;52.474;13.326;2022-09-09T13:20:29;2.38;;;1.17;;
44358;SDS011;30077;52.474;13.326;2022-09-09T13:25:30;3.42;;;1.50;;
44358;SDS011;30077;52.474;13.326;2022-09-09T13:30:32;4.57;;;1.40;;
44358;SDS011;30077;52.474;13.326;2022-09-09T13:35:45;8.10;;;1.42;;
44358;SDS011;30077;52.474;13.326;2022-09-09T13:40:52;3.13;;;1.23;;
44358;SDS011;30077;52.474;13.326;2022-09-09T13:45:59;2.90;;;1.48;;
44358;SDS011;30077;52.474;13.326;2022-09-09T13:51:03;2.47;;;1.35;;
44358;SDS011;30077;52.474;13.326;2022-09-09T13:56:07;4.15;;;1.38;;
44358;SDS011;30077;52.474;13.326;2022-09-09T14:01:08;2.45;;;1.55;;
44358;SDS011;30077;52.474;13.326;2022-09-09T14:06:11;5.05;;;1.60;;
44358;SDS011;30077;52.474;13.326;2022-09-09T14:11:12;5.15;;;2.33;;
44358;SDS011;30077;52.474;13.326;2022-09-09T14:16:13;5.78;;;2.17;;
44358;SDS011;30077;52.474;13.326;2022-09-09T14:21:13;5.38;;;1.30;;
44358;SDS011;30077;52.474;13.326;2022-09-09T14:26:15;4.75;;;2.03;;
44358;SDS011;30077;52.474;13.326;2022-09-09T14:31:15;2.88;;;1.40;;
44358;SDS011;30077;52.474;13.326;2022-09-09T14:36:17;8.05;;;1.70;;
44358;SDS011;30077;52.474;13.326;2022-09-09T14:41:18;4.97;;;1.60;;
44358;SDS011;30077;52.474;13.326;2022-09-09T14:46:20;3.50;;;1.00;;
44358;SDS011;30077;52.474;13.326;2022-09-09T14:51:21;2.28;;;1.10;;
44358;SDS011;30077;52.474;13.326;2022-09-09T14:56:24;3.95;;;1.80;;
44358;SDS011;30077;52.474;13.326;2022-09-09T15:01:27;4.20;;;1.50;;
44358;SDS011;30077;52.474;13.326;2022-09-09T15:06:29;5.55;;;1.27;;
44358;SDS011;30077;52.474;13.326;2022-09-09T15:11:34;2.70;;;1.63;;
44358;SDS011;30077;52.474;13.326;2022-09-09T15:16:39;4.00;;;1.80;;
44358;SDS011;30077;52.474;13.326;2022-09-09T15:21:39;2.92;;;1.42;;
44358;SDS011;30077;52.474;13.326;2022-09-09T15:26:40;3.72;;;1.40;;
44358;SDS011;30077;52.474;13.326;2022-09-09T15:31:40;2.97;;;1.48;;
44358;SDS011;30077;52.474;13.326;2022-09-09T15:36:41;4.00;;;1.38;;
44358;SDS011;30077;52.474;13.326;2022-09-09T15:46:49;3.90;;;1.88;;
44358;SDS011;30077;52.474;13.326;2022-09-09T15:51:52;2.97;;;1.45;;
44358;SDS011;30077;52.474;13.326;2022-09-09T15:56:56;2.92;;;1.40;;
44358;SDS011;30077;52.474;13.326;2022-09-09T16:01:57;4.18;;;2.22;;
44358;SDS011;30077;52.474;13.326;2022-09-09T16:07:00;3.30;;;1.50;;
44358;SDS011;30077;52.474;13.326;2022-09-09T16:12:03;6.20;;;2.30;;
44358;SDS011;30077;52.474;13.326;2022-09-09T16:17:09;3.40;;;1.77;;
44358;SDS011;30077;52.474;13.326;2022-09-09T16:22:09;5.20;;;1.52;;
44358;SDS011;30077;52.474;13.326;2022-09-09T16:27:10;8.80;;;2.05;;
44358;SDS011;30077;52.474;13.326;2022-09-09T16:32:11;3.90;;;2.05;;
44358;SDS011;30077;52.474;13.326;2022-09-09T16:37:11;3.95;;;2.00;;
44358;SDS011;30077;52.474;13.326;2022-09-09T16:42:12;3.75;;;1.95;;
44358;SDS011;30077;52.474;13.326;2022-09-09T16:47:12;3.88;;;1.70;;
44358;SDS011;30077;52.474;13.326;2022-09-09T16:52:13;4.63;;;1.80;;
44358;SDS011;30077;52.474;13.326;2022-09-09T16:57:13;5.10;;;1.90;;
44358;SDS011;30077;52.474;13.326;2022-09-09T17:02:20;9.60;;;6.45;;
44358;SDS011;30077;52.474;13.326;2022-09-09T17:07:20;8.38;;;5.95;;
44358;SDS011;30077;52.474;13.326;2022-09-09T17:12:22;4.35;;;2.60;;
44358;SDS011;30077;52.474;13.326;2022-09-09T17:17:29;7.45;;;3.08;;
44358;SDS011;30077;52.474;13.326;2022-09-09T17:22:29;5.80;;;2.10;;
44358;SDS011;30077;52.474;13.326;2022-09-09T17:27:30;8.82;;;2.40;;
44358;SDS011;30077;52.474;13.326;2022-09-09T17:32:33;7.20;;;2.28;;
44358;SDS011;30077;52.474;13.326;2022-09-09T17:37:35;7.13;;;2.70;;
44358;SDS011;30077;52.474;13.326;2022-09-09T17:42:35;6.85;;;2.38;;
44358;SDS011;30077;52.474;13.326;2022-09-09T17:47:36;7.05;;;3.58;;
44358;SDS011;30077;52.474;13.326;2022-09-09T17:52:36;13.02;;;7.97;;
44358;SDS011;30077;52.474;13.326;2022-09-09T17:57:37;6.22;;;2.75;;
44358;SDS011;30077;52.474;13.326;2022-09-09T18:02:37;3.85;;;2.10;;
44358;SDS011;30077;52.474;13.326;2022-09-09T18:07:38;2.90;;;2.03;;
44358;SDS011;30077;52.474;13.326;2022-09-09T18:12:38;5.13;;;1.80;;
44358;SDS011;30077;52.474;13.326;2022-09-09T18:17:38;4.35;;;1.58;;
44358;SDS011;30077;52.474;13.326;2022-09-09T18:22:39;10.75;;;7.20;;
44358;SDS011;30077;52.474;13.326;2022-09-09T18:27:39;23.90;;;14.30;;
44358;SDS011;30077;52.474;13.326;2022-09-09T18:32:39;10.38;;;7.32;;
44358;SDS011;30077;52.474;13.326;2022-09-09T18:37:40;3.90;;;1.90;;
44358;SDS011;30077;52.474;13.326;2022-09-09T18:42:40;2.78;;;2.10;;
44358;SDS011;30077;52.474;13.326;2022-09-09T18:47:40;4.63;;;2.40;;
44358;SDS011;30077;52.474;13.326;2022-09-09T18:52:41;7.10;;;2.20;;
44358;SDS011;30077;52.474;13.326;2022-09-09T18:57:42;3.47;;;2.03;;
44358;SDS011;30077;52.474;13.326;2022-09-09T19:02:42;5.25;;;3.28;;
44358;SDS011;30077;52.474;13.326;2022-09-09T19:07:42;5.75;;;2.72;;
44358;SDS011;30077;52.474;13.326;2022-09-09T19:12:43;5.95;;;2.58;;
44358;SDS011;30077;52.474;13.326;2022-09-09T19:17:43;5.40;;;1.80;;
44358;SDS011;30077;52.474;13.326;2022-09-09T19:22:43;8.65;;;3.50;;
44358;SDS011;30077;52.474;13.326;2022-09-09T19:27:45;17.25;;;10.35;;
44358;SDS011;30077;52.474;13.326;2022-09-09T19:32:45;16.50;;;12.45;;
44358;SDS011;30077;52.474;13.326;2022-09-09T19:37:46;3.25;;;2.03;;
44358;SDS011;30077;52.474;13.326;2022-09-09T19:42:46;10.00;;;6.68;;
44358;SDS011;30077;52.474;13.326;2022-09-09T19:47:47;5.25;;;2.35;;
44358;SDS011;30077;52.474;13.326;2022-09-09T19:52:47;4.00;;;2.00;;
44358;SDS011;30077;52.474;13.326;2022-09-09T19:57:48;5.30;;;4.05;;
44358;SDS011;30077;52.474;13.326;2022-09-09T20:02:48;5.63;;;3.33;;
44358;SDS011;30077;52.474;13.326;2022-09-09T20:07:51;3.85;;;1.55;;
44358;SDS011;30077;52.474;13.326;2022-09-09T20:12:51;3.67;;;1.77;;
44358;SDS011;30077;52.474;13.326;2022-09-09T20:17:52;5.22;;;1.60;;
44358;SDS011;30077;52.474;13.326;2022-09-09T20:22:53;2.83;;;1.90;;
44358;SDS011;30077;52.474;13.326;2022-09-09T20:27:54;6.15;;;4.57;;
44358;SDS011;30077;52.474;13.326;2022-09-09T20:32:54;4.97;;;2.13;;
44358;SDS011;30077;52.474;13.326;2022-09-09T20:37:54;17.25;;;10.55;;
44358;SDS011;30077;52.474;13.326;2022-09-09T20:42:54;3.78;;;2.05;;
44358;SDS011;30077;52.474;13.326;2022-09-09T20:47:55;4.75;;;1.95;;
44358;SDS011;30077;52.474;13.326;2022-09-09T20:52:56;7.57;;;3.88;;
44358;SDS011;30077;52.474;13.326;2022-09-09T20:57:57;8.13;;;5.00;;
44358;SDS011;30077;52.474;13.326;2022-09-09T21:02:59;13.18;;;8.10;;
44358;SDS011;30077;52.474;13.326;2022-09-09T21:08:01;5.87;;;2.57;;
44358;SDS011;30077;52.474;13.326;2022-09-09T21:13:01;10.55;;;6.20;;
44358;SDS011;30077;52.474;13.326;2022-09-09T21:18:02;5.00;;;2.55;;
44358;SDS011;30077;52.474;13.326;2022-09-09T21:23:03;3.70;;;2.28;;
44358;SDS011;30077;52.474;13.326;2022-09-09T21:28:03;4.65;;;2.20;;
44358;SDS011;30077;52.474;13.326;2022-09-09T21:33:05;3.10;;;1.85;;
44358;SDS011;30077;52.474;13.326;2022-09-09T21:38:12;9.73;;;6.18;;
44358;SDS011;30077;52.474;13.326;2022-09-09T21:43:20;6.03;;;3.53;;
44358;SDS011;30077;52.474;13.326;2022-09-09T21:48:22;5.33;;;2.30;;
44358;SDS011;30077;52.474;13.326;2022-09-09T21:53:25;3.85;;;1.92;;
44358;SDS011;30077;52.474;13.326;2022-09-09T21:58:25;19.60;;;12.48;;
44358;SDS011;30077;52.474;13.326;2022-09-09T22:03:25;6.90;;;4.57;;
44358;SDS011;30077;52.474;13.326;2022-09-09T22:08:27;6.07;;;2.37;;
44358;SDS011;30077;52.474;13.326;2022-09-09T22:13:28;8.20;;;2.33;;
44358;SDS011;30077;52.474;13.326;2022-09-09T22:18:28;14.60;;;9.32;;
44358;SDS011;30077;52.474;13.326;2022-09-09T22:23:31;4.70;;;2.45;;
44358;SDS011;30077;52.474;13.326;2022-09-09T22:28:32;6.73;;;3.97;;
44358;SDS011;30077;52.474;13.326;2022-09-09T22:33:32;15.75;;;11.20;;
44358;SDS011;30077;52.474;13.326;2022-09-09T22:38:33;25.92;;;15.52;;
44358;SDS011;30077;52.474;13.326;2022-09-09T22:43:35;7.18;;;4.53;;
44358;SDS011;30077;52.474;13.326;2022-09-09T22:48:36;49.07;;;28.20;;
44358;SDS011;30077;52.474;13.326;2022-09-09T22:53:40;10.02;;;6.32;;
44358;SDS011;30077;52.474;13.326;2022-09-09T22:58:43;3.08;;;2.40;;
44358;SDS011;30077;52.474;13.326;2022-09-09T23:03:45;23.20;;;16.42;;
44358;SDS011;30077;52.474;13.326;2022-09-09T23:08:46;9.68;;;3.33;;
44358;SDS011;30077;52.474;13.326;2022-09-09T23:13:51;5.88;;;2.75;;
44358;SDS011;30077;52.474;13.326;2022-09-09T23:18:52;6.33;;;2.87;;
44358;SDS011;30077;52.474;13.326;2022-09-09T23:23:57;4.53;;;2.58;;
44358;SDS011;30077;52.474;13.326;2022-09-09T23:28:58;4.77;;;2.60;;
44358;SDS011;30077;52.474;13.326;2022-09-09T23:33:59;3.47;;;2.58;;
44358;SDS011;30077;52.474;13.326;2022-09-09T23:39:01;3.97;;;2.50;;
44358;SDS011;30077;52.474;13.326;2022-09-09T23:44:04;5.45;;;2.88;;
44358;SDS011;30077;52.474;13.326;2022-09-09T23:49:06;4.72;;;2.90;;
44358;SDS011;30077;52.474;13.326;2022-09-09T23:54:07;5.18;;;3.00;;
44358;SDS011;30077;52.474;13.326;2022-09-09T23:59:08;5.82;;;3.17;;
